Time;durP1;ratioP1;P1;durP2;ratioP2;P2;SDS_P1;SDS_P2;PMS_P1;PMS_P2;Temp;Humidity;BMP_temperature;BMP_pressure;BME280_temperature;BME280_humidity;BME280_pressure;Samples;Min_cycle;Max_cycle;Signal;HPM_P1;HPM_P2
2022/08/30 00:02:29;;;;;;;8.33;5.20;;;20.10;73.20;;;;;;5025464;28;20204;-71
2022/08/30 00:04:55;;;;;;;8.10;5.10;;;20.10;73.20;;;;;;5011458;28;20435;-72
2022/08/30 00:07:20;;;;;;;10.03;5.73;;;20.00;73.60;;;;;;5028775;28;20219;-73
2022/08/30 00:09:46;;;;;;;7.30;5.40;;;20.00;73.70;;;;;;5025830;28;20204;-73
2022/08/30 00:12:12;;;;;;;8.77;5.53;;;20.00;73.90;;;;;;5024784;28;20216;-73
2022/08/30 00:14:37;;;;;;;9.17;5.90;;;20.00;73.70;;;;;;5024839;28;20247;-72
2022/08/30 00:17:03;;;;;;;9.03;6.20;;;19.80;74.00;;;;;;5010091;28;20275;-72
2022/08/30 00:19:30;;;;;;;14.07;6.20;;;19.80;74.30;;;;;;5023496;28;20529;-72
2022/08/30 00:21:55;;;;;;;10.77;5.60;;;19.80;74.20;;;;;;5022435;28;20472;-72
2022/08/30 00:24:21;;;;;;;14.27;5.70;;;19.80;74.30;;;;;;5011230;28;20530;-71
2022/08/30 00:26:46;;;;;;;11.83;5.60;;;19.80;74.50;;;;;;5029946;28;20204;-72
2022/08/30 00:29:12;;;;;;;9.70;6.10;;;19.80;74.50;;;;;;5028797;28;20251;-72
2022/08/30 00:31:38;;;;;;;8.43;5.70;;;19.80;74.30;;;;;;5023726;28;20203;-71
2022/08/30 00:34:04;;;;;;;12.43;5.77;;;19.80;74.50;;;;;;5015451;28;20439;-72
2022/08/30 00:36:30;;;;;;;8.90;5.37;;;19.60;74.80;;;;;;5032895;28;20213;-72
2022/08/30 00:38:55;;;;;;;7.90;5.10;;;19.50;75.40;;;;;;5031340;28;20192;-72
2022/08/30 00:41:21;;;;;;;8.23;6.10;;;19.60;75.20;;;;;;5007974;28;20452;-71
2022/08/30 00:43:47;;;;;;;8.00;5.60;;;19.60;75.10;;;;;;5030797;28;20250;-72
2022/08/30 00:46:12;;;;;;;7.37;5.67;;;19.60;75.10;;;;;;5030574;28;20431;-73
2022/08/30 00:48:43;;;;;;;10.50;6.07;;;19.50;75.20;;;;;;5026474;28;20199;-71
2022/08/30 00:51:13;;;;;;;12.93;6.97;;;19.40;75.70;;;;;;5024315;28;20211;-72
2022/08/30 00:53:44;;;;;;;17.53;7.10;;;19.30;76.80;;;;;;5028607;28;20421;-72
2022/08/30 00:56:10;;;;;;;7.80;5.77;;;19.30;77.10;;;;;;5022182;28;20463;-73
2022/08/30 00:58:41;;;;;;;9.73;6.93;;;19.30;77.10;;;;;;5022376;28;20846;-72
2022/08/30 01:01:08;;;;;;;9.10;5.83;;;19.30;76.70;;;;;;5005945;28;20448;-71
2022/08/30 01:03:35;;;;;;;8.43;6.00;;;19.30;76.50;;;;;;5009080;28;20950;-72
2022/08/30 01:06:03;;;;;;;8.80;6.00;;;19.30;76.70;;;;;;5023097;28;20414;-72
2022/08/30 01:08:28;;;;;;;10.27;7.13;;;19.30;77.00;;;;;;5031216;28;20436;-72
2022/08/30 01:10:56;;;;;;;8.60;6.10;;;19.30;77.00;;;;;;5030084;28;20455;-70
2022/08/30 01:13:24;;;;;;;10.10;6.50;;;19.20;77.40;;;;;;5014087;28;21008;-72
2022/08/30 01:15:50;;;;;;;10.10;6.80;;;19.20;77.60;;;;;;5029429;28;21018;-72
2022/08/30 01:18:17;;;;;;;10.00;6.50;;;19.20;78.10;;;;;;5029478;28;20479;-71
2022/08/30 01:21:09;;;;;;;10.57;7.37;;;19.10;78.40;;;;;;5025986;28;20465;-72
2022/08/30 01:23:38;;;;;;;9.37;6.63;;;19.00;78.90;;;;;;5011348;28;20432;-71
2022/08/30 01:26:05;;;;;;;15.40;7.03;;;19.00;79.30;;;;;;5029575;28;20825;-71
2022/08/30 01:28:32;;;;;;;12.67;7.60;;;19.00;79.00;;;;;;5012021;28;20447;-72
2022/08/30 01:30:57;;;;;;;12.70;7.47;;;19.10;79.00;;;;;;5009504;28;20468;-72
2022/08/30 01:33:23;;;;;;;11.37;7.27;;;19.10;79.00;;;;;;5030062;28;20978;-70
2022/08/30 01:35:52;;;;;;;12.57;8.50;;;19.10;79.00;;;;;;5029198;28;20209;-71
2022/08/30 01:38:21;;;;;;;11.53;7.27;;;18.90;79.60;;;;;;5030463;28;20424;-71
2022/08/30 01:40:47;;;;;;;11.03;6.40;;;18.80;80.00;;;;;;5026081;28;20460;-71
2022/08/30 01:43:14;;;;;;;12.97;7.40;;;18.80;80.20;;;;;;5015264;28;20425;-71
2022/08/30 01:45:41;;;;;;;12.23;7.20;;;18.80;80.30;;;;;;5030581;28;20821;-71
2022/08/30 01:48:07;;;;;;;12.17;7.70;;;18.80;80.50;;;;;;5028074;28;20426;-72
2022/08/30 01:50:33;;;;;;;11.87;7.23;;;18.90;80.60;;;;;;5031186;28;20593;-72
2022/08/30 01:52:59;;;;;;;10.37;7.30;;;18.90;80.50;;;;;;5017860;28;20551;-71
2022/08/30 01:55:25;;;;;;;11.83;7.70;;;18.90;80.50;;;;;;5031882;28;20554;-71
2022/08/30 01:57:51;;;;;;;13.10;6.90;;;18.80;80.80;;;;;;5031534;28;20177;-71
2022/08/30 02:00:17;;;;;;;15.40;7.40;;;18.70;81.20;;;;;;5029562;28;20427;-70
2022/08/30 02:02:43;;;;;;;15.00;7.20;;;18.60;81.50;;;;;;5027752;28;20190;-71
2022/08/30 02:05:09;;;;;;;12.77;7.43;;;18.60;81.90;;;;;;5031241;28;20733;-70
2022/08/30 02:07:35;;;;;;;11.77;6.87;;;18.60;81.90;;;;;;5030032;28;20452;-71
2022/08/30 02:10:01;;;;;;;9.57;6.40;;;18.50;82.20;;;;;;5031086;28;20425;-71
2022/08/30 02:12:29;;;;;;;10.03;7.00;;;18.50;82.40;;;;;;5008744;28;20688;-72
2022/08/30 02:14:54;;;;;;;11.47;7.47;;;18.50;82.10;;;;;;5029233;28;20476;-71
2022/08/30 02:17:20;;;;;;;10.87;6.80;;;18.50;81.90;;;;;;5027685;28;21118;-71
2022/08/30 02:19:46;;;;;;;11.57;6.73;;;18.50;81.70;;;;;;5027495;28;20833;-72
2022/08/30 02:22:11;;;;;;;12.40;8.03;;;18.40;81.80;;;;;;5021498;28;20299;-71
2022/08/30 02:24:37;;;;;;;10.77;7.03;;;18.40;81.80;;;;;;5025961;28;20636;-70
2022/08/30 02:27:03;;;;;;;9.30;6.97;;;18.50;81.70;;;;;;5031098;28;20185;-70
2022/08/30 02:29:30;;;;;;;11.60;7.20;;;18.50;81.70;;;;;;5024013;28;20196;-70
2022/08/30 02:31:55;;;;;;;10.03;6.70;;;18.40;81.70;;;;;;5024897;28;20459;-70
2022/08/30 02:34:21;;;;;;;9.00;6.23;;;18.40;82.10;;;;;;5012816;28;20479;-71
2022/08/30 02:36:47;;;;;;;14.20;7.50;;;18.40;82.10;;;;;;5031352;28;20190;-73
2022/08/30 02:39:14;;;;;;;10.97;7.10;;;18.40;82.10;;;;;;5031019;28;20186;-71
2022/08/30 02:41:40;;;;;;;9.43;6.77;;;18.40;82.10;;;;;;5010647;28;20208;-70
2022/08/30 02:44:07;;;;;;;11.37;7.53;;;18.50;82.10;;;;;;5031049;28;20541;-71
2022/08/30 02:46:34;;;;;;;16.03;7.70;;;18.40;82.10;;;;;;5033298;28;20434;-73
2022/08/30 02:49:00;;;;;;;14.37;8.53;;;18.40;82.20;;;;;;5015585;28;20440;-72
2022/08/30 02:51:26;;;;;;;14.00;7.70;;;18.40;82.20;;;;;;5028692;28;20616;-71
2022/08/30 02:53:51;;;;;;;11.47;7.57;;;18.40;82.40;;;;;;5027965;28;20477;-70
2022/08/30 02:56:17;;;;;;;10.93;7.40;;;18.40;82.70;;;;;;5027857;28;20250;-73
2022/08/30 02:58:44;;;;;;;14.43;8.87;;;18.30;82.50;;;;;;5030061;28;20598;-72
2022/08/30 03:01:12;;;;;;;16.30;8.13;;;18.20;83.10;;;;;;5025543;28;20766;-71
2022/08/30 03:03:39;;;;;;;13.07;7.43;;;18.00;83.70;;;;;;5012474;28;20482;-71
2022/08/30 03:06:05;;;;;;;15.07;9.30;;;18.00;83.80;;;;;;5020950;28;20950;-71
2022/08/30 03:08:31;;;;;;;15.10;8.60;;;17.90;83.80;;;;;;5023353;28;20516;-72
2022/08/30 03:10:58;;;;;;;10.90;7.10;;;17.90;84.10;;;;;;5023808;28;20468;-73
2022/08/30 03:13:25;;;;;;;13.73;8.30;;;17.90;84.30;;;;;;5033659;28;20948;-70
2022/08/30 03:15:50;;;;;;;12.70;7.43;;;17.90;84.60;;;;;;5027488;28;20474;-73
2022/08/30 03:18:18;;;;;;;11.77;7.80;;;17.90;84.70;;;;;;5028408;28;20420;-74
2022/08/30 03:20:44;;;;;;;12.13;7.70;;;18.00;84.60;;;;;;5026604;28;20217;-71
2022/08/30 03:23:09;;;;;;;16.93;7.97;;;17.90;84.60;;;;;;5028341;28;20412;-70
2022/08/30 03:25:35;;;;;;;13.37;7.53;;;18.00;84.40;;;;;;5027845;28;20515;-71
2022/08/30 03:28:01;;;;;;;11.10;7.53;;;18.00;84.30;;;;;;5026671;28;20193;-72
2022/08/30 03:30:26;;;;;;;13.13;7.60;;;17.90;84.30;;;;;;5026857;28;20608;-71
2022/08/30 03:32:52;;;;;;;14.50;8.03;;;18.00;84.30;;;;;;5023458;28;20439;-72
2022/08/30 03:35:18;;;;;;;12.40;8.13;;;17.90;84.00;;;;;;5023393;28;20213;-73
2022/08/30 03:37:44;;;;;;;14.40;8.30;;;18.00;84.10;;;;;;5021213;28;20541;-72
2022/08/30 03:40:12;;;;;;;12.93;7.50;;;18.00;84.10;;;;;;5023408;28;20170;-69
2022/08/30 03:42:40;;;;;;;11.90;7.00;;;18.00;84.00;;;;;;5024132;28;20435;-71
2022/08/30 03:45:07;;;;;;;10.20;6.77;;;18.00;84.10;;;;;;5019140;28;20801;-72
2022/08/30 03:47:32;;;;;;;14.80;7.27;;;17.90;84.00;;;;;;5024664;28;20570;-71
2022/08/30 03:49:59;;;;;;;15.97;8.77;;;17.80;84.60;;;;;;5010554;28;20986;-73
2022/08/30 03:52:24;;;;;;;12.37;7.90;;;17.70;84.60;;;;;;5023907;28;20217;-73
2022/08/30 03:54:50;;;;;;;12.90;7.03;;;17.70;85.00;;;;;;5024292;28;20472;-72
2022/08/30 03:57:16;;;;;;;12.00;7.20;;;17.70;85.20;;;;;;5029136;28;20233;-71
2022/08/30 03:59:42;;;;;;;12.80;7.30;;;17.70;84.90;;;;;;5028475;28;20181;-71
2022/08/30 04:02:07;;;;;;;11.97;7.97;;;17.70;85.00;;;;;;5027591;28;20452;-73
2022/08/30 04:04:33;;;;;;;13.83;7.90;;;17.70;84.90;;;;;;5027100;28;20644;-72
2022/08/30 04:06:59;;;;;;;14.50;7.27;;;17.70;84.70;;;;;;5029232;28;20201;-71
2022/08/30 04:09:24;;;;;;;10.10;6.90;;;17.70;84.90;;;;;;5028912;28;20194;-70
2022/08/30 04:11:50;;;;;;;13.80;8.23;;;17.80;84.60;;;;;;5025051;28;20292;-73
2022/08/30 04:14:16;;;;;;;12.53;7.63;;;17.70;84.60;;;;;;5029216;28;20702;-73
2022/08/30 04:16:42;;;;;;;11.63;7.07;;;17.70;84.70;;;;;;5030875;28;20259;-72
2022/08/30 04:19:08;;;;;;;17.70;8.50;;;17.70;84.70;;;;;;5031264;28;20466;-72
2022/08/30 04:21:35;;;;;;;11.80;7.90;;;17.70;84.70;;;;;;5025193;28;20233;-72
2022/08/30 04:24:00;;;;;;;11.27;7.60;;;17.70;84.70;;;;;;5023516;28;20176;-73
2022/08/30 04:26:26;;;;;;;11.80;8.00;;;17.60;84.70;;;;;;5026814;28;20796;-72
2022/08/30 04:28:53;;;;;;;16.90;8.70;;;17.60;85.00;;;;;;5029565;28;20187;-71
2022/08/30 04:31:20;;;;;;;12.37;8.10;;;17.60;85.30;;;;;;5018413;28;20601;-71
2022/08/30 04:33:45;;;;;;;13.50;8.77;;;17.60;85.30;;;;;;5025494;28;20425;-71
2022/08/30 04:36:12;;;;;;;13.43;7.40;;;17.70;85.30;;;;;;5027702;28;20499;-71
2022/08/30 04:38:38;;;;;;;14.07;7.73;;;17.70;85.00;;;;;;5028106;28;20205;-71
2022/08/30 04:41:16;;;;;;;11.20;7.23;;;17.70;85.20;;;;;;5025046;28;20456;-71
2022/08/30 04:43:50;;;;;;;13.23;7.43;;;17.80;84.90;;;;;;5010994;28;20525;-71
2022/08/30 04:46:17;;;;;;;11.60;8.03;;;17.70;85.00;;;;;;5024185;28;20506;-71
2022/08/30 04:48:43;;;;;;;13.80;7.73;;;17.70;85.20;;;;;;5013055;28;20440;-72
2022/08/30 04:51:12;;;;;;;13.77;7.80;;;17.70;85.00;;;;;;5034640;28;20483;-72
2022/08/30 04:53:39;;;;;;;13.73;8.17;;;17.70;85.00;;;;;;5030141;28;20446;-71
2022/08/30 04:56:15;;;;;;;12.97;7.50;;;17.80;85.20;;;;;;5024287;28;20472;-72
2022/08/30 04:58:41;;;;;;;13.80;7.53;;;17.80;85.20;;;;;;5028535;28;21002;-71
2022/08/30 05:01:14;;;;;;;13.70;8.37;;;17.80;85.20;;;;;;5024863;28;20448;-74
2022/08/30 05:03:40;;;;;;;12.33;8.37;;;17.80;85.00;;;;;;5021934;28;20774;-74
2022/08/30 05:06:06;;;;;;;18.73;9.33;;;17.70;85.30;;;;;;5023768;28;20420;-72
2022/08/30 05:08:32;;;;;;;12.40;7.53;;;17.70;85.50;;;;;;5024652;28;20183;-72
2022/08/30 05:10:57;;;;;;;13.57;8.40;;;17.70;85.50;;;;;;5026636;28;20451;-74
2022/08/30 05:13:23;;;;;;;13.10;7.83;;;17.70;85.50;;;;;;5027914;28;20204;-73
2022/08/30 05:15:48;;;;;;;14.67;8.50;;;17.70;85.60;;;;;;5014040;28;20209;-73
2022/08/30 05:18:14;;;;;;;14.93;7.90;;;17.80;85.00;;;;;;5026360;28;20277;-71
2022/08/30 05:20:41;;;;;;;15.60;8.90;;;17.70;85.50;;;;;;5026557;28;20212;-72
2022/08/30 05:23:08;;;;;;;17.47;8.37;;;17.60;85.60;;;;;;5014436;28;20522;-71
2022/08/30 05:25:37;;;;;;;11.80;8.13;;;17.50;85.90;;;;;;5031170;28;20450;-73
2022/08/30 05:28:04;;;;;;;14.67;8.43;;;17.50;86.20;;;;;;5031929;28;20463;-72
2022/08/30 05:30:32;;;;;;;15.20;8.60;;;17.50;86.20;;;;;;5028849;28;20490;-73
2022/08/30 05:32:58;;;;;;;13.90;8.40;;;17.60;86.20;;;;;;5026683;28;20536;-73
2022/08/30 05:35:24;;;;;;;14.90;8.80;;;17.70;86.00;;;;;;5028369;28;20579;-74
2022/08/30 05:37:49;;;;;;;13.07;9.10;;;17.80;86.20;;;;;;5028120;28;20577;-72
2022/08/30 05:40:18;;;;;;;10.80;8.27;;;17.80;86.00;;;;;;5032233;28;20181;-72
2022/08/30 05:42:45;;;;;;;17.90;9.00;;;17.90;86.00;;;;;;5031485;28;20195;-72
2022/08/30 05:45:12;;;;;;;15.73;9.03;;;18.10;85.50;;;;;;5014565;28;20464;-71
2022/08/30 05:47:38;;;;;;;13.73;8.93;;;18.10;85.20;;;;;;5024732;28;20423;-70
2022/08/30 05:50:06;;;;;;;13.03;8.00;;;18.20;84.90;;;;;;5031187;28;20474;-71
2022/08/30 05:52:35;;;;;;;13.30;9.63;;;18.30;84.60;;;;;;5022301;28;20215;-72
2022/08/30 05:55:03;;;;;;;14.40;9.37;;;18.40;84.00;;;;;;5029453;28;20455;-72
2022/08/30 05:57:34;;;;;;;12.10;8.07;;;18.50;83.30;;;;;;5010348;28;20439;-72
2022/08/30 06:00:04;;;;;;;13.80;9.07;;;18.60;82.80;;;;;;5031666;28;20429;-73
2022/08/30 06:02:30;;;;;;;14.90;9.33;;;18.60;82.40;;;;;;5013048;28;20442;-72
2022/08/30 06:04:55;;;;;;;15.53;9.77;;;18.60;81.80;;;;;;5028416;28;20431;-72
2022/08/30 06:07:21;;;;;;;17.50;9.67;;;18.60;81.90;;;;;;5025184;28;20191;-73
2022/08/30 06:09:47;;;;;;;15.13;9.43;;;18.60;82.10;;;;;;5024996;28;20194;-71
2022/08/30 06:12:12;;;;;;;16.03;9.53;;;18.50;82.20;;;;;;5009323;28;20233;-72
2022/08/30 06:14:38;;;;;;;19.30;9.60;;;18.60;81.90;;;;;;5030864;28;20197;-72
2022/08/30 06:17:04;;;;;;;18.47;9.63;;;18.80;81.70;;;;;;5013363;28;20186;-71
2022/08/30 06:19:30;;;;;;;23.03;9.30;;;18.80;81.40;;;;;;5030757;28;20711;-73
2022/08/30 06:21:56;;;;;;;20.60;10.90;;;18.90;81.20;;;;;;5024479;28;20458;-72
2022/08/30 06:24:21;;;;;;;15.43;9.60;;;19.00;81.10;;;;;;5030305;28;20482;-71
2022/08/30 06:26:47;;;;;;;17.40;10.83;;;19.00;81.10;;;;;;5028419;28;20289;-72
2022/08/30 06:29:17;;;;;;;14.77;9.83;;;19.20;80.90;;;;;;5029571;28;20200;-72
2022/08/30 06:31:43;;;;;;;17.70;10.20;;;19.30;80.60;;;;;;5025528;28;20209;-72
2022/08/30 06:34:09;;;;;;;14.60;10.37;;;19.50;80.50;;;;;;5027529;28;20420;-72
2022/08/30 06:36:35;;;;;;;16.17;9.17;;;19.70;79.70;;;;;;5027531;28;20260;-72
2022/08/30 06:39:01;;;;;;;25.30;11.73;;;19.80;79.20;;;;;;5026723;28;20185;-72
2022/08/30 06:41:31;;;;;;;17.20;10.07;;;19.80;78.60;;;;;;5025784;28;20615;-72
2022/08/30 06:43:59;;;;;;;14.70;10.03;;;20.00;78.90;;;;;;5024503;28;20526;-71
2022/08/30 06:46:31;;;;;;;16.10;10.20;;;20.10;78.60;;;;;;5025306;28;20424;-72
2022/08/30 06:48:57;;;;;;;18.40;10.07;;;20.20;78.00;;;;;;5026238;28;20522;-71
2022/08/30 06:51:31;;;;;;;20.23;11.53;;;20.30;77.60;;;;;;5028735;28;20491;-73
2022/08/30 06:53:57;;;;;;;20.53;11.80;;;20.40;77.40;;;;;;5012672;28;20949;-72
2022/08/30 06:56:23;;;;;;;23.40;12.50;;;20.40;77.80;;;;;;5029986;28;20479;-71
2022/08/30 06:58:49;;;;;;;21.87;12.40;;;20.50;77.30;;;;;;5028874;28;20438;-72
2022/08/30 07:01:18;;;;;;;22.30;13.10;;;20.50;77.30;;;;;;5009207;28;20242;-73
2022/08/30 07:03:44;;;;;;;30.47;13.27;;;20.30;77.80;;;;;;5030601;28;20627;-72
2022/08/30 07:06:10;;;;;;;32.60;13.80;;;20.10;78.70;;;;;;5029997;28;20519;-72
2022/08/30 07:08:37;;;;;;;23.37;11.93;;;20.00;79.20;;;;;;5030030;28;20660;-72
2022/08/30 07:11:04;;;;;;;27.50;14.00;;;20.00;79.50;;;;;;5026139;28;20573;-72
2022/08/30 07:13:30;;;;;;;22.73;13.77;;;19.90;79.30;;;;;;5027404;28;20519;-71
2022/08/30 07:15:56;;;;;;;25.10;14.13;;;20.00;79.60;;;;;;5029485;28;20481;-72
2022/08/30 07:21:11;;;;;;;16.67;12.33;;;20.20;78.90;;;;;;5023281;28;20220;-72
2022/08/30 07:23:36;;;;;;;22.60;12.63;;;20.40;78.40;;;;;;5024569;28;20432;-72
2022/08/30 07:26:07;;;;;;;19.37;11.90;;;20.60;77.80;;;;;;5028289;28;20416;-73
2022/08/30 07:28:33;;;;;;;18.33;11.60;;;20.70;77.40;;;;;;5030573;28;20186;-72
2022/08/30 07:30:59;;;;;;;19.00;11.27;;;20.90;76.50;;;;;;5026591;28;20485;-73
2022/08/30 07:33:24;;;;;;;21.03;11.73;;;21.20;75.40;;;;;;5030734;28;20886;-72
2022/08/30 07:35:50;;;;;;;25.43;13.10;;;21.30;74.50;;;;;;5030890;28;20412;-73
2022/08/30 07:38:17;;;;;;;17.20;12.00;;;21.40;74.00;;;;;;5028050;28;20178;-73
2022/08/30 07:40:43;;;;;;;18.67;10.50;;;21.50;74.00;;;;;;5021464;28;20557;-73
2022/08/30 07:43:08;;;;;;;16.60;10.30;;;21.80;73.30;;;;;;5026959;28;20474;-72
2022/08/30 07:45:36;;;;;;;17.03;10.23;;;22.10;72.30;;;;;;5023285;28;20501;-71
2022/08/30 07:48:03;;;;;;;18.07;11.17;;;22.30;71.10;;;;;;5030575;28;20184;-71
2022/08/30 07:50:29;;;;;;;21.90;10.70;;;22.20;70.70;;;;;;5028326;28;20458;-72
2022/08/30 07:52:54;;;;;;;19.97;10.60;;;22.30;70.80;;;;;;5030421;28;20858;-73
2022/08/30 07:55:20;;;;;;;19.97;11.70;;;22.50;70.20;;;;;;5028771;28;20675;-71
2022/08/30 07:57:46;;;;;;;20.50;11.73;;;22.50;69.80;;;;;;5028454;28;20220;-72
2022/08/30 08:00:12;;;;;;;23.40;12.47;;;22.50;70.10;;;;;;5028606;28;20189;-72
2022/08/30 08:02:39;;;;;;;17.33;10.57;;;22.30;70.50;;;;;;5013214;28;20297;-73
2022/08/30 08:05:07;;;;;;;19.23;10.47;;;22.30;71.00;;;;;;5027339;28;20809;-73
2022/08/30 08:07:33;;;;;;;19.50;11.50;;;22.30;70.70;;;;;;5034645;28;20435;-73
2022/08/30 08:09:59;;;;;;;14.80;10.43;;;22.40;70.50;;;;;;5032318;28;20568;-72
2022/08/30 08:12:25;;;;;;;19.50;11.33;;;22.50;70.40;;;;;;5028089;28;20471;-73
2022/08/30 08:14:51;;;;;;;13.90;10.07;;;22.60;69.50;;;;;;5035076;28;20266;-71
2022/08/30 08:17:16;;;;;;;20.20;9.83;;;22.90;69.20;;;;;;5029989;28;20429;-72
2022/08/30 08:19:42;;;;;;;20.63;10.73;;;23.00;68.30;;;;;;5031351;28;20789;-71
2022/08/30 08:22:08;;;;;;;13.60;9.20;;;23.10;69.10;;;;;;5027125;28;20275;-71
2022/08/30 08:24:33;;;;;;;18.00;9.77;;;23.10;69.10;;;;;;5024632;28;20195;-73
2022/08/30 08:26:59;;;;;;;14.80;9.40;;;23.20;69.20;;;;;;5031223;28;20206;-72
2022/08/30 08:29:26;;;;;;;17.23;10.20;;;23.30;68.50;;;;;;5031035;28;20612;-71
2022/08/30 08:31:52;;;;;;;14.70;9.43;;;23.40;67.70;;;;;;5004487;28;20229;-73
2022/08/30 08:34:22;;;;;;;15.20;9.73;;;23.50;67.90;;;;;;5030527;28;20413;-74
2022/08/30 08:36:48;;;;;;;14.63;9.20;;;23.50;67.30;;;;;;5031551;28;20534;-72
2022/08/30 08:39:13;;;;;;;15.97;9.07;;;23.40;67.60;;;;;;5031904;28;20470;-72
2022/08/30 08:42:04;;;;;;;16.57;9.50;;;23.40;67.90;;;;;;5027555;28;20461;-71
2022/08/30 08:44:29;;;;;;;12.07;8.33;;;23.40;68.00;;;;;;5027898;28;20206;-74
2022/08/30 08:47:15;;;;;;;17.80;9.83;;;23.60;67.70;;;;;;5031397;28;20432;-72
2022/08/30 08:49:45;;;;;;;16.23;10.00;;;23.70;67.30;;;;;;5013685;28;20190;-73
2022/08/30 08:55:47;;;;;;;19.47;10.17;;;23.80;67.50;;;;;;4989674;28;20937;-73
2022/08/30 08:58:28;;;;;;;18.17;9.97;;;23.80;67.60;;;;;;4987259;28;20439;-72
2022/08/30 09:00:56;;;;;;;17.73;9.87;;;23.90;67.30;;;;;;4989476;28;20564;-72
2022/08/30 09:03:25;;;;;;;15.57;8.77;;;24.00;67.00;;;;;;4972228;28;20432;-73
2022/08/30 09:05:52;;;;;;;16.13;9.70;;;24.10;67.00;;;;;;4990432;28;20446;-73
2022/08/30 09:08:19;;;;;;;14.03;9.10;;;24.20;66.30;;;;;;4974556;28;20444;-73
2022/08/30 09:11:01;;;;;;;11.97;8.80;;;24.20;66.10;;;;;;4973721;28;21124;-72
2022/08/30 09:13:27;;;;;;;18.03;9.40;;;24.40;65.70;;;;;;4974517;28;20963;-72
2022/08/30 09:15:55;;;;;;;13.03;9.50;;;24.40;65.10;;;;;;4990256;28;20485;-73
2022/08/30 09:18:42;;;;;;;15.73;9.70;;;24.40;65.00;;;;;;4990516;28;20254;-76
2022/08/30 09:21:08;;;;;;;12.30;7.80;;;24.50;65.30;;;;;;4983800;28;20500;-71
2022/08/30 09:23:34;;;;;;;13.53;8.70;;;24.70;65.00;;;;;;4991631;28;20517;-73
2022/08/30 09:26:06;;;;;;;14.90;8.53;;;24.80;64.70;;;;;;4990321;28;20855;-72
2022/08/30 09:28:42;;;;;;;12.30;8.63;;;24.90;64.20;;;;;;4985175;28;20492;-72
2022/08/30 09:31:32;;;;;;;11.53;8.90;;;24.90;63.90;;;;;;4991053;28;20554;-72
2022/08/30 09:34:14;;;;;;;12.90;7.50;;;24.90;63.90;;;;;;5030903;28;20444;-74
2022/08/30 09:36:42;;;;;;;16.27;8.23;;;24.90;63.50;;;;;;5032322;28;20478;-71
2022/08/30 09:39:38;;;;;;;11.03;7.63;;;24.90;63.80;;;;;;5031093;28;20423;-72
2022/08/30 09:42:21;;;;;;;12.70;7.67;;;25.00;62.50;;;;;;5032511;28;20902;-72
2022/08/30 09:44:47;;;;;;;12.20;8.00;;;25.10;63.40;;;;;;5027813;28;20459;-71
2022/08/30 09:47:24;;;;;;;11.83;8.40;;;25.30;63.10;;;;;;5030876;28;20847;-70
2022/08/30 09:50:04;;;;;;;11.03;8.00;;;25.50;62.60;;;;;;5032393;28;20192;-71
2022/08/30 09:53:08;;;;;;;11.57;7.80;;;25.60;61.70;;;;;;5012260;28;20460;-70
2022/08/30 09:55:44;;;;;;;11.13;7.90;;;25.80;60.70;;;;;;5029959;28;20798;-71
2022/08/30 09:58:49;;;;;;;12.90;7.70;;;25.90;61.30;;;;;;5021287;28;20422;-72
2022/08/30 10:01:30;;;;;;;10.17;7.73;;;26.10;60.70;;;;;;4973084;28;20473;-72
2022/08/30 10:04:19;;;;;;;9.97;7.07;;;26.20;60.60;;;;;;5006768;28;20459;-72
2022/08/30 10:06:54;;;;;;;10.03;7.83;;;26.20;60.40;;;;;;5024050;28;20530;-73
2022/08/30 10:09:29;;;;;;;11.73;8.63;;;26.20;60.30;;;;;;5028101;28;20506;-71
2022/08/30 10:12:12;;;;;;;11.23;7.53;;;26.20;60.60;;;;;;5009625;28;20551;-72
2022/08/30 10:14:54;;;;;;;11.30;7.97;;;26.20;60.60;;;;;;5022434;28;20595;-71
2022/08/30 10:17:25;;;;;;;11.47;8.47;;;26.30;60.10;;;;;;5026589;28;20453;-72
2022/08/30 10:20:08;;;;;;;11.20;8.07;;;26.40;59.90;;;;;;5028691;28;20910;-72
2022/08/30 10:22:45;;;;;;;12.80;8.20;;;26.50;59.50;;;;;;5027946;28;20443;-73
2022/08/30 10:25:18;;;;;;;10.77;7.17;;;26.40;59.10;;;;;;5023035;28;20492;-71
2022/08/30 10:27:54;;;;;;;11.13;7.43;;;26.50;59.30;;;;;;5010832;28;20438;-71
2022/08/30 10:30:21;;;;;;;12.80;8.47;;;26.70;58.70;;;;;;5011041;28;20832;-74
2022/08/30 10:33:19;;;;;;;11.27;7.03;;;26.90;58.00;;;;;;5023221;28;20511;-70
2022/08/30 10:35:49;;;;;;;9.40;7.27;;;27.10;55.00;;;;;;5011013;28;20474;-72
2022/08/30 10:38:24;;;;;;;7.63;6.23;;;27.20;52.80;;;;;;5028317;28;20501;-72
2022/08/30 10:41:14;;;;;;;9.40;6.03;;;27.30;52.20;;;;;;5027039;28;20501;-73
2022/08/30 10:43:58;;;;;;;9.93;5.80;;;27.50;51.60;;;;;;5023676;28;20853;-75
2022/08/30 10:46:38;;;;;;;9.43;6.43;;;27.70;50.10;;;;;;5025977;28;20419;-70
2022/08/30 10:49:14;;;;;;;6.97;6.07;;;28.10;48.70;;;;;;5024452;28;20473;-72
2022/08/30 10:51:46;;;;;;;9.47;6.47;;;28.50;47.50;;;;;;5028189;28;20820;-75
2022/08/30 10:54:29;;;;;;;8.03;5.67;;;28.80;46.90;;;;;;5019690;28;20432;-71
2022/08/30 10:56:55;;;;;;;9.30;5.90;;;29.30;44.30;;;;;;5026631;28;20472;-72
2022/08/30 10:59:21;;;;;;;7.70;5.90;;;29.50;45.00;;;;;;5028617;28;20460;-72
2022/08/30 11:02:34;;;;;;;9.20;5.70;;;29.70;43.90;;;;;;5011548;28;20532;-73
2022/08/30 11:05:14;;;;;;;8.27;5.43;;;29.90;39.90;;;;;;4952044;28;20219;-73
2022/08/30 11:08:00;;;;;;;6.83;5.30;;;29.90;39.80;;;;;;4951863;28;20439;-72
2022/08/30 11:10:44;;;;;;;8.00;5.70;;;30.20;40.80;;;;;;4948581;28;20459;-73
2022/08/30 11:13:17;;;;;;;10.03;6.10;;;30.70;38.60;;;;;;4944107;28;20502;-73
2022/08/30 11:16:14;;;;;;;11.17;6.47;;;30.10;39.90;;;;;;4948659;28;20839;-72
2022/08/30 11:18:47;;;;;;;7.37;6.07;;;29.50;43.90;;;;;;4950158;28;20428;-74
2022/08/30 11:21:23;;;;;;;10.27;5.93;;;29.70;44.50;;;;;;4950916;28;21108;-72
2022/08/30 11:24:08;;;;;;;8.43;6.87;;;30.40;43.20;;;;;;4950179;28;21197;-72
2022/08/30 11:26:48;;;;;;;8.50;6.63;;;31.30;42.70;;;;;;4946579;28;20445;-73
2022/08/30 11:29:28;;;;;;;9.53;6.77;;;31.70;42.00;;;;;;4950736;28;20431;-73
2022/08/30 11:31:56;;;;;;;8.57;6.47;;;31.90;40.80;;;;;;4949795;28;20470;-73
2022/08/30 11:34:43;;;;;;;9.07;6.73;;;31.00;42.40;;;;;;4950036;28;20442;-74
2022/08/30 11:37:10;;;;;;;7.93;6.47;;;30.40;44.10;;;;;;4950328;28;20443;-72
2022/08/30 11:39:43;;;;;;;8.43;7.17;;;30.90;43.40;;;;;;4940001;28;20795;-73
2022/08/30 11:42:29;;;;;;;10.00;6.57;;;31.40;41.40;;;;;;5026783;28;20459;-74
2022/08/30 11:45:23;;;;;;;8.10;6.30;;;31.70;41.10;;;;;;5025078;28;20455;-73
2022/08/30 11:47:59;;;;;;;9.47;6.20;;;31.60;40.70;;;;;;5026114;28;20413;-73
2022/08/30 11:50:53;;;;;;;11.13;7.37;;;31.70;40.80;;;;;;5029124;28;20623;-73
2022/08/30 11:53:44;;;;;;;10.83;7.00;;;31.50;41.20;;;;;;5025631;28;20439;-73
2022/08/30 11:56:20;;;;;;;12.30;7.00;;;31.10;42.20;;;;;;5023934;28;20459;-72
2022/08/30 11:58:48;;;;;;;9.13;7.00;;;30.70;42.70;;;;;;5031266;28;20537;-72
2022/08/30 12:01:17;;;;;;;8.60;6.90;;;30.40;42.70;;;;;;5028971;28;20554;-72
2022/08/30 12:03:43;;;;;;;6.87;6.07;;;29.40;44.50;;;;;;5015337;28;21059;-72
2022/08/30 12:06:10;;;;;;;9.13;6.50;;;29.30;45.10;;;;;;5029135;28;20424;-73
2022/08/30 12:08:42;;;;;;;8.03;6.43;;;29.50;44.20;;;;;;5033495;28;20456;-71
2022/08/30 12:11:11;;;;;;;8.87;6.50;;;29.60;44.20;;;;;;5030503;28;20464;-71
2022/08/30 12:13:36;;;;;;;7.70;6.23;;;29.80;43.90;;;;;;5033435;28;20814;-72
2022/08/30 12:16:18;;;;;;;8.07;6.70;;;29.90;44.60;;;;;;5032707;28;20574;-71
2022/08/30 12:18:58;;;;;;;7.47;6.27;;;29.80;44.50;;;;;;5029394;28;20189;-72
2022/08/30 12:21:33;;;;;;;7.40;6.10;;;30.00;44.30;;;;;;5008651;28;20463;-73
2022/08/30 12:24:22;;;;;;;7.80;6.43;;;30.00;43.40;;;;;;5029675;28;20490;-73
2022/08/30 12:26:50;;;;;;;10.73;6.00;;;30.10;43.10;;;;;;5025650;28;20525;-72
2022/08/30 12:29:22;;;;;;;8.13;6.47;;;30.30;43.80;;;;;;5027632;28;20906;-72
2022/08/30 12:31:51;;;;;;;9.13;6.37;;;30.20;43.10;;;;;;5023366;28;21007;-71
2022/08/30 12:34:43;;;;;;;10.53;6.70;;;30.10;43.50;;;;;;5029513;28;20434;-71
2022/08/30 12:37:34;;;;;;;7.33;6.30;;;30.60;43.00;;;;;;4930079;29;20488;-71
2022/08/30 12:40:20;;;;;;;10.20;6.80;;;30.70;41.90;;;;;;4929735;29;20523;-73
2022/08/30 12:42:55;;;;;;;8.70;7.00;;;30.80;41.90;;;;;;4930109;29;20471;-73
2022/08/30 12:45:25;;;;;;;9.87;6.90;;;31.10;41.40;;;;;;4929342;29;20471;-72
2022/08/30 12:47:53;;;;;;;11.60;7.50;;;30.80;41.50;;;;;;4929111;29;20456;-71
2022/08/30 12:50:41;;;;;;;6.80;6.07;;;30.70;41.80;;;;;;4929639;29;20435;-72
2022/08/30 12:53:10;;;;;;;10.50;6.63;;;31.20;41.10;;;;;;4929853;29;20468;-71
2022/08/30 12:55:51;;;;;;;7.50;6.30;;;32.00;39.60;;;;;;4929813;29;20475;-71
2022/08/30 12:58:39;;;;;;;7.70;6.00;;;32.40;39.00;;;;;;4927792;29;20959;-73
2022/08/30 13:01:18;;;;;;;8.87;6.17;;;32.60;38.30;;;;;;4929532;29;20468;-71